createdAt,value
2023-04-03T00:03:03.791Z,7.58
2023-04-03T00:08:09.062Z,7.55
2023-04-03T00:13:14.539Z,7.67
2023-04-03T00:18:18.073Z,7.53
2023-04-03T00:23:21.544Z,7.32
2023-04-03T00:28:26.473Z,7.37
2023-04-03T00:33:29.862Z,7.40
2023-04-03T00:38:33.825Z,7.43
2023-04-03T00:43:38.914Z,7.36
2023-04-03T00:48:45.003Z,7.30
2023-04-03T00:53:51.802Z,7.39
2023-04-03T00:59:01.449Z,7.31
2023-04-03T01:04:07.039Z,7.37
2023-04-03T01:09:10.845Z,7.42
2023-04-03T01:14:15.742Z,7.58
2023-04-03T01:19:21.759Z,7.67
2023-04-03T01:24:35.162Z,8.09
2023-04-03T01:29:44.568Z,8.04
2023-04-03T01:34:49.582Z,8.05
2023-04-03T01:39:53.184Z,8.16
2023-04-03T01:44:56.759Z,8.30
2023-04-03T01:50:01.643Z,8.40
2023-04-03T01:55:09.209Z,8.29
2023-04-03T02:00:13.706Z,7.98
2023-04-03T02:05:20.149Z,7.68
2023-04-03T02:10:23.567Z,7.36
2023-04-03T02:15:27.289Z,7.39
2023-04-03T02:20:32.350Z,7.32
2023-04-03T02:25:38.471Z,7.33
2023-04-03T02:30:42.229Z,7.37
2023-04-03T02:35:54.191Z,7.52
2023-04-03T02:41:03.414Z,7.63
2023-04-03T02:46:09.615Z,7.73
2023-04-03T02:51:15.031Z,7.71
2023-04-03T02:56:19.205Z,7.72
2023-04-03T03:01:23.366Z,7.75
2023-04-03T03:06:28.708Z,7.76
2023-04-03T03:11:32.365Z,7.71
2023-04-03T03:16:36.176Z,7.62
2023-04-03T03:21:41.012Z,7.49
2023-04-03T03:26:44.545Z,7.25
2023-04-03T03:31:49.488Z,7.21
2023-04-03T03:36:54.662Z,7.18
2023-04-03T03:41:58.318Z,6.99
2023-04-03T03:47:02.159Z,7.08
2023-04-03T03:52:08.020Z,7.07
2023-04-03T03:57:11.893Z,6.87
2023-04-03T04:02:16.020Z,6.87
2023-04-03T04:07:20.945Z,6.85
2023-04-03T04:12:24.558Z,6.97
2023-04-03T04:17:28.104Z,6.98
2023-04-03T04:22:33.711Z,7.07
2023-04-03T04:27:38.142Z,7.15
2023-04-03T04:32:42.905Z,7.25
2023-04-03T04:37:48.145Z,7.35
2023-04-03T04:42:52.090Z,7.36
2023-04-03T04:47:57.625Z,7.45
2023-04-03T04:53:03.809Z,7.58
2023-04-03T04:58:07.425Z,7.66
2023-04-03T05:03:12.904Z,7.86
2023-04-03T05:08:18.477Z,8.05
2023-04-03T05:13:22.446Z,8.16
2023-04-03T05:18:26.344Z,8.33
2023-04-03T05:23:34.507Z,8.38
2023-04-03T05:28:39.502Z,8.58
2023-04-03T05:33:44.578Z,8.80
2023-04-03T05:38:54.726Z,8.93
2023-04-03T05:43:58.461Z,9.09
2023-04-03T05:49:02.957Z,9.19
2023-04-03T05:54:15.882Z,9.32
2023-04-03T05:59:21.244Z,9.49
2023-04-03T06:04:27.834Z,9.71
2023-04-03T06:09:33.433Z,9.72
2023-04-03T06:14:37.167Z,9.90
2023-04-03T06:19:40.615Z,10.07
2023-04-03T06:24:45.940Z,10.35
2023-04-03T06:29:49.894Z,10.67
2023-04-03T06:34:54.425Z,11.13
2023-04-03T06:39:59.309Z,11.40
2023-04-03T06:45:02.886Z,11.81
2023-04-03T06:50:10.024Z,12.18
2023-04-03T06:55:14.868Z,12.56
2023-04-03T07:00:19.307Z,12.92
2023-04-03T07:05:23.083Z,13.10
2023-04-03T07:10:28.194Z,13.48
2023-04-03T07:15:32.292Z,13.73
2023-04-03T07:20:37.394Z,14.28
2023-04-03T07:25:46.760Z,14.65
2023-04-03T07:30:52.471Z,14.68
2023-04-03T07:35:56.758Z,15.00
2023-04-03T07:41:02.052Z,15.08
2023-04-03T07:46:07.795Z,15.06
2023-04-03T07:51:12.434Z,14.68
2023-04-03T07:56:17.406Z,14.47
2023-04-03T08:01:21.141Z,14.15
2023-04-03T08:06:37.407Z,14.42
2023-04-03T08:11:47.518Z,14.50
2023-04-03T08:16:51.128Z,14.61
2023-04-03T08:21:54.768Z,14.47
2023-04-03T08:26:59.919Z,15.04
2023-04-03T08:32:04.939Z,15.78
2023-04-03T08:37:08.334Z,16.28
2023-04-03T08:42:21.946Z,16.73
2023-04-03T08:47:32.465Z,17.49
2023-04-03T08:52:40.587Z,16.45
2023-04-03T08:57:48.313Z,16.21
2023-04-03T09:02:54.171Z,16.04
2023-04-03T09:08:06.606Z,15.70
2023-04-03T09:13:19.078Z,16.04
2023-04-03T09:18:26.299Z,16.56
2023-04-03T09:23:36.212Z,15.91
2023-04-03T09:28:50.471Z,16.09
2023-04-03T09:33:59.006Z,15.85
2023-04-03T09:39:07.032Z,15.75
2023-04-03T09:44:25.950Z,15.74
2023-04-03T09:49:29.525Z,15.79
2023-04-03T09:54:37.174Z,15.91
2023-04-03T09:59:48.342Z,16.49
2023-04-03T10:05:02.546Z,16.24
2023-04-03T10:10:21.386Z,16.34
2023-04-03T10:15:32.232Z,16.23
2023-04-03T10:20:40.060Z,16.12
2023-04-03T10:25:51.312Z,16.19
2023-04-03T10:31:08.029Z,16.11
2023-04-03T10:36:20.752Z,16.41
2023-04-03T10:41:34.489Z,16.90
2023-04-03T10:46:43.912Z,18.11
2023-04-03T10:51:50.718Z,17.72
2023-04-03T10:57:10.849Z,17.56
2023-04-03T11:02:25.199Z,16.97
2023-04-03T11:07:32.930Z,16.71
2023-04-03T11:12:44.242Z,16.86
2023-04-03T11:17:56.933Z,17.55
2023-04-03T11:23:05.382Z,16.96
2023-04-03T11:28:15.102Z,17.09
2023-04-03T11:33:30.891Z,17.21
2023-04-03T11:38:40.562Z,16.95
2023-04-03T11:43:57.592Z,16.90
2023-04-03T11:49:02.701Z,16.43
2023-04-03T11:54:44.739Z,16.02
2023-04-03T11:59:48.588Z,16.12
2023-04-03T12:05:21.579Z,16.14
2023-04-03T12:10:32.122Z,16.08
2023-04-03T12:15:55.619Z,16.12
2023-04-03T12:21:00.437Z,16.12
2023-04-03T12:26:22.798Z,15.81
2023-04-03T12:31:35.602Z,15.52
2023-04-03T12:36:50.456Z,15.43
2023-04-03T12:42:03.487Z,15.24
2023-04-03T12:47:24.489Z,15.20
2023-04-03T12:52:39.689Z,15.11
2023-04-03T12:57:44.505Z,14.93
2023-04-03T13:02:48.735Z,14.86
2023-04-03T13:07:57.488Z,14.73
2023-04-03T13:13:10.744Z,14.70
2023-04-03T13:18:30.128Z,14.49
2023-04-03T13:23:36.849Z,14.53
2023-04-03T13:28:42.864Z,14.38
2023-04-03T13:33:57.975Z,14.29
2023-04-03T13:39:05.041Z,14.32
2023-04-03T13:44:27.967Z,14.35
2023-04-03T13:49:35.224Z,14.19
2023-04-03T13:54:41.038Z,14.05
2023-04-03T13:59:46.785Z,13.97
2023-04-03T14:04:57.477Z,13.79
2023-04-03T14:10:01.523Z,13.79
2023-04-03T14:15:14.688Z,13.63
2023-04-03T14:20:19.167Z,13.48
2023-04-03T14:25:24.611Z,13.42
2023-04-03T14:30:33.078Z,13.47
2023-04-03T14:35:36.574Z,13.23
2023-04-03T14:40:40.649Z,12.95
2023-04-03T14:45:45.977Z,12.81
2023-04-03T14:51:04.673Z,12.76
2023-04-03T14:56:14.465Z,12.59
2023-04-03T15:01:19.778Z,12.42
2023-04-03T15:06:23.398Z,12.34
2023-04-03T15:11:27.799Z,12.30
2023-04-03T15:16:32.747Z,12.04
2023-04-03T15:21:36.413Z,11.98
2023-04-03T15:26:40.207Z,11.74
2023-04-03T15:31:45.464Z,11.71
2023-04-03T15:36:49.151Z,11.55
2023-04-03T15:41:53.456Z,11.42
2023-04-03T15:46:58.346Z,11.36
2023-04-03T15:52:02.149Z,11.34
2023-04-03T15:57:05.635Z,11.19
2023-04-03T16:02:15.358Z,11.19
2023-04-03T16:07:18.944Z,10.97
2023-04-03T16:12:22.405Z,11.04
2023-04-03T16:17:29.377Z,10.95
2023-04-03T16:22:33.232Z,10.90
2023-04-03T16:27:36.675Z,10.95
2023-04-03T16:32:43.165Z,10.91
2023-04-03T16:37:47.980Z,10.91
2023-04-03T16:42:51.679Z,10.68
2023-04-03T16:47:56.691Z,10.57
2023-04-03T16:53:00.173Z,10.60
2023-04-03T16:58:03.729Z,10.40
2023-04-03T17:03:08.640Z,10.30
2023-04-03T17:08:12.112Z,10.23
2023-04-03T17:13:16.072Z,10.28
2023-04-03T17:18:21.033Z,10.10
2023-04-03T17:23:25.952Z,10.06
2023-04-03T17:28:29.788Z,9.99
2023-04-03T17:33:37.582Z,9.94
2023-04-03T17:38:41.381Z,9.92
2023-04-03T17:43:46.220Z,9.97
2023-04-03T17:48:51.225Z,9.83
2023-04-03T17:53:54.711Z,9.77
2023-04-03T17:58:58.888Z,9.68
2023-04-03T18:04:05.901Z,9.58
2023-04-03T18:09:12.967Z,9.46
2023-04-03T18:14:19.389Z,9.42
2023-04-03T18:19:24.395Z,9.42
2023-04-03T18:24:28.787Z,9.35
2023-04-03T18:29:35.145Z,9.33
2023-04-03T18:34:40.651Z,9.31
2023-04-03T18:39:44.871Z,9.34
2023-04-03T18:44:52.513Z,9.42
2023-04-03T18:49:57.885Z,9.38
2023-04-03T18:55:01.624Z,9.41
2023-04-03T19:00:07.372Z,9.45
2023-04-03T19:05:15.203Z,9.48
2023-04-03T19:10:20.124Z,9.45
2023-04-03T19:15:25.653Z,9.49
2023-04-03T19:20:32.568Z,9.47
2023-04-03T19:25:36.254Z,9.39
2023-04-03T19:30:40.085Z,9.38
2023-04-03T19:35:45.402Z,9.38
2023-04-03T19:40:49.295Z,9.37
2023-04-03T19:45:53.629Z,9.35
2023-04-03T19:50:58.880Z,9.25
2023-04-03T19:56:02.477Z,9.24
2023-04-03T20:01:07.421Z,9.23
2023-04-03T20:06:12.421Z,9.31
2023-04-03T20:11:16.227Z,9.30
2023-04-03T20:16:22.541Z,9.31
2023-04-03T20:21:33.162Z,9.21
2023-04-03T20:26:42.144Z,9.18
2023-04-03T20:31:46.924Z,9.17
2023-04-03T20:36:53.159Z,9.07
2023-04-03T20:41:56.715Z,9.08
2023-04-03T20:47:00.454Z,9.04
2023-04-03T20:52:05.677Z,8.98
2023-04-03T20:57:09.188Z,8.99
2023-04-03T21:02:13.203Z,8.99
2023-04-03T21:07:54.557Z,8.95
2023-04-03T21:13:35.063Z,8.84
2023-04-03T21:18:59.464Z,8.84
2023-04-03T21:24:06.488Z,8.82
2023-04-03T21:29:10.628Z,8.81
2023-04-03T21:34:15.578Z,8.83
2023-04-03T21:39:19.156Z,8.80
2023-04-03T21:44:22.854Z,8.80
2023-04-03T21:49:28.271Z,8.81
2023-04-03T21:54:31.718Z,8.64
2023-04-03T21:59:35.979Z,8.61
2023-04-03T22:04:41.056Z,8.65
2023-04-03T22:09:44.530Z,8.64
2023-04-03T22:14:48.098Z,8.61
2023-04-03T22:19:52.807Z,8.55
2023-04-03T22:24:57.014Z,8.59
2023-04-03T22:30:00.518Z,8.56
2023-04-03T22:35:06.146Z,8.53
2023-04-03T22:40:11.008Z,8.56
2023-04-03T22:45:15.239Z,8.52
2023-04-03T22:50:20.097Z,8.56
2023-04-03T22:55:24.542Z,8.55
2023-04-03T23:00:28.248Z,8.53
2023-04-03T23:05:33.089Z,8.49
2023-04-03T23:10:36.483Z,8.54
2023-04-03T23:15:39.880Z,8.54
2023-04-03T23:20:44.670Z,8.45
2023-04-03T23:25:53.230Z,8.48
2023-04-03T23:30:59.591Z,8.52
2023-04-03T23:36:09.048Z,8.51
2023-04-03T23:41:12.997Z,8.55
2023-04-03T23:46:16.382Z,8.53
2023-04-03T23:51:21.657Z,8.55
2023-04-03T23:56:25.100Z,8.58
